Time;durP1;ratioP1;P1;durP2;ratioP2;P2;SDS_P1;SDS_P2;PMS_P1;PMS_P2;Temp;Humidity;BMP_temperature;BMP_pressure;BME280_temperature;BME280_humidity;BME280_pressure;Samples;Min_cycle;Max_cycle;Signal;HPM_P1;HPM_P2
2023/03/30 00:01:31;;;;;;;;;82.33;59.67;;;;;5.10;87.03;100088.75;6310662;20;3648204;-52
2023/03/30 00:04:01;;;;;;;;;73.67;57.67;;;;;4.79;88.37;100087.94;6280178;20;2888643;-52
2023/03/30 00:06:33;;;;;;;;;73.00;55.67;;;;;4.51;88.96;100084.41;6312489;20;3647227;-54
2023/03/30 00:09:05;;;;;;;;;68.00;54.00;;;;;4.46;90.14;100081.00;6312373;20;3621206;-51
2023/03/30 00:11:36;;;;;;;;;65.67;52.33;;;;;4.21;92.03;100078.19;6311458;20;3627865;-52
2023/03/30 00:14:05;;;;;;;;;65.50;52.50;;;;;4.30;92.01;100072.63;6314805;20;2872238;-51
2023/03/30 00:16:34;;;;;;;;;73.00;56.00;;;;;4.07;93.73;100063.53;6279378;20;2836751;-52
2023/03/30 00:19:04;;;;;;;;;73.67;57.33;;;;;4.10;93.49;100074.06;6283856;20;2872259;-54
2023/03/30 00:21:34;;;;;;;;;67.00;52.00;;;;;4.00;95.04;100072.56;6310610;20;3633769;-50
2023/03/30 00:24:04;;;;;;;;;69.00;52.33;;;;;4.11;94.44;100066.97;6309876;20;3645088;-53
2023/03/30 00:26:33;;;;;;;;;65.50;51.50;;;;;3.95;95.08;100062.09;6311745;20;2865914;-53
2023/03/30 00:29:03;;;;;;;;;67.33;50.67;;;;;3.87;95.31;100060.56;6279359;20;2887912;-53
2023/03/30 00:31:32;;;;;;;;;63.67;50.67;;;;;3.92;94.68;100059.53;6310881;20;2864852;-54
2023/03/30 00:34:02;;;;;;;;;70.33;54.00;;;;;4.07;94.69;100055.56;6311253;20;2869098;-54
2023/03/30 00:36:35;;;;;;;;;71.33;54.00;;;;;3.89;94.42;100054.28;6312450;20;3647095;-50
2023/03/30 00:39:07;;;;;;;;;58.33;43.00;;;;;3.83;94.35;100045.63;6312521;20;2872146;-54
2023/03/30 00:41:36;;;;;;;;;59.00;45.67;;;;;3.85;94.41;100046.47;6310501;20;2870039;-55
2023/03/30 00:45:05;;;;;;;;;59.67;46.00;;;;;3.84;94.59;100047.38;6312466;20;2867004;-52
2023/03/30 00:47:40;;;;;;;;;56.00;46.00;;;;;3.83;95.31;100033.22;6308748;20;2500326;-53
2023/03/30 00:50:11;;;;;;;;;60.00;50.50;;;;;3.81;94.85;100039.50;6277429;20;2859735;-53
2023/03/30 00:52:43;;;;;;;;;66.33;48.00;;;;;3.82;94.73;100033.25;6275897;20;2889957;-50
2023/03/30 00:55:13;;;;;;;;;60.00;47.00;;;;;3.89;93.81;100040.13;6308511;20;2862809;-53
2023/03/30 00:57:43;;;;;;;;;60.00;46.00;;;;;3.84;93.70;100032.28;6281351;20;2863830;-54
2023/03/30 01:00:13;;;;;;;;;54.50;44.00;;;;;3.87;93.82;100024.25;6308597;20;2854413;-53
2023/03/30 01:02:58;;;;;;;;;46.50;38.50;;;;;3.76;94.13;100023.69;6277676;20;2508587;-53
2023/03/30 01:05:29;;;;;;;;;56.33;42.67;;;;;3.84;93.86;100018.16;6278494;20;2886199;-54
2023/03/30 01:07:59;;;;;;;;;43.50;38.50;;;;;3.88;93.57;100014.50;6308076;20;2860756;-55
2023/03/30 01:10:28;;;;;;;;;42.00;38.50;;;;;4.07;92.39;100014.84;6276383;20;2860834;-53
2023/03/30 01:12:56;;;;;;;;;41.00;36.00;;;;;4.24;90.04;100016.97;6280160;20;2854457;-52
2023/03/30 01:15:34;;;;;;;;;48.67;36.00;;;;;4.09;90.37;100011.22;6279731;20;3623272;-56
2023/03/30 01:18:53;;;;;;;;;36.50;33.00;;;;;4.09;90.93;100005.91;6308607;20;2853407;-53
2023/03/30 01:22:06;;;;;;;;;45.00;38.00;;;;;4.15;90.75;100007.50;6275267;20;2866041;-52
2023/03/30 01:25:28;;;;;;;;;42.00;38.00;;;;;4.03;91.55;100000.78;6309963;20;2854502;-55
2023/03/30 01:28:35;;;;;;;;;49.00;41.00;;;;;4.21;91.71;99998.47;6274792;20;2473193;-54
2023/03/30 01:31:41;;;;;;;;;66.67;52.00;;;;;3.79;94.02;99993.50;6277683;20;2889130;-51
2023/03/30 01:34:42;;;;;;;;;66.50;50.00;;;;;3.86;94.33;100000.38;6310333;20;2863822;-53
2023/03/30 01:38:40;;;;;;;;;55.50;45.00;;;;;3.97;94.25;99995.63;6283765;20;2876376;-55
2023/03/30 01:41:37;;;;;;;;;48.50;40.50;;;;;4.01;94.02;99994.63;6280989;20;2853442;-49
2023/03/30 01:44:50;;;;;;;;;47.00;40.00;;;;;4.05;93.80;99980.31;6282726;20;2862753;-55
2023/03/30 01:48:03;;;;;;;;;41.00;39.00;;;;;3.97;94.64;99980.56;6282124;20;2854530;-54
2023/03/30 01:50:45;;;;;;;;;48.00;40.00;;;;;4.12;92.56;99981.88;6280982;20;2871083;-50
2023/03/30 01:53:32;;;;;;;;;60.67;45.67;;;;;4.39;93.13;99981.94;6279345;20;2885765;-52
2023/03/30 01:56:47;;;;;;;;;54.00;43.00;;;;;4.38;90.45;99974.91;6313296;20;2875321;-51
2023/03/30 02:00:00;;;;;;;;;52.67;41.33;;;;;4.59;88.65;99982.19;6281095;20;2877325;-54
2023/03/30 02:02:32;;;;;;;;;42.67;37.33;;;;;4.48;90.23;99984.31;6313559;20;2873326;-52
2023/03/30 02:05:05;;;;;;;;;32.00;31.50;;;;;4.67;88.53;99983.72;6312961;20;2849362;-54
2023/03/30 02:07:36;;;;;;;;;35.50;32.50;;;;;4.67;87.85;99978.41;6278834;20;2838847;-53
2023/03/30 02:10:10;;;;;;;;;49.67;40.67;;;;;4.74;86.57;99987.91;6277992;20;2874334;-54
2023/03/30 02:12:40;;;;;;;;;44.00;38.00;;;;;4.81;86.88;99984.13;6312693;20;2859713;-53
2023/03/30 02:15:12;;;;;;;;;47.00;38.00;;;;;4.61;87.83;99991.00;6280966;20;2868442;-52
2023/03/30 02:17:44;;;;;;;;;50.67;40.67;;;;;4.53;89.17;99987.72;6304735;20;2875823;-52
2023/03/30 02:20:16;;;;;;;;;50.00;43.00;;;;;4.20;91.18;99991.41;6311529;20;2500316;-51
2023/03/30 02:22:45;;;;;;;;;36.00;27.00;;;;;4.10;92.47;99993.47;6283054;20;2859737;-52
2023/03/30 02:25:16;;;;;;;;;54.50;42.00;;;;;4.07;91.26;99985.59;6282400;20;2853407;-54
2023/03/30 02:27:45;;;;;;;;;54.50;41.00;;;;;4.15;90.52;99981.78;6284757;20;2869021;-55
2023/03/30 02:30:15;;;;;;;;;51.50;42.00;;;;;4.17;91.05;99984.41;6282811;20;2860709;-54
2023/03/30 02:32:55;;;;;;;;;38.00;27.50;;;;;4.32;89.49;99978.63;6284672;20;2871150;-54
2023/03/30 02:36:06;;;;;;;;;41.33;32.33;;;;;4.32;89.04;99983.94;6283483;20;3631612;-51
2023/03/30 02:38:53;;;;;;;;;20.67;13.33;;;;;4.46;87.62;99983.50;6313153;20;2805545;-53
2023/03/30 02:41:55;;;;;;;;;39.67;31.67;;;;;4.42;87.69;99973.88;6315048;20;2865938;-53
2023/03/30 02:45:25;;;;;;;;;34.33;30.00;;;;;4.52;87.32;99985.94;6313257;20;2858721;-56
2023/03/30 02:48:09;;;;;;;;;43.50;37.50;;;;;4.56;86.42;99986.75;6314398;20;2858639;-53
2023/03/30 02:50:50;;;;;;;;;95.67;75.33;;;;;4.53;86.41;99976.19;6282265;20;3683697;-53
2023/03/30 02:53:58;;;;;;;;;70.00;53.67;;;;;4.34;86.58;99979.44;6281790;20;3636757;-53
2023/03/30 02:56:40;;;;;;;;;64.00;48.00;;;;;4.40;87.69;99976.59;6312031;20;2857685;-51
2023/03/30 02:59:18;;;;;;;;;55.00;45.50;;;;;4.32;87.73;99975.97;6311926;20;2865964;-54
2023/03/30 03:02:11;;;;;;;;;42.33;34.00;;;;;4.46;87.18;99986.16;6279514;20;3614837;-54
2023/03/30 03:04:42;;;;;;;;;53.00;42.00;;;;;4.36;88.02;99980.25;6314194;20;2877664;-54
2023/03/30 03:07:13;;;;;;;;;42.33;37.33;;;;;4.46;86.52;99980.84;6282495;20;2865914;-51
2023/03/30 03:09:42;;;;;;;;;56.00;45.00;;;;;4.30;86.87;99974.28;6311234;20;2865139;-54
2023/03/30 03:12:12;;;;;;;;;62.00;48.33;;;;;4.21;87.05;99967.44;6282791;20;2864968;-52
2023/03/30 03:14:42;;;;;;;;;60.00;50.00;;;;;3.97;88.01;99977.03;6312045;20;2876516;-55
2023/03/30 03:17:12;;;;;;;;;55.50;43.00;;;;;3.91;89.06;99966.59;6314515;20;2859100;-56
2023/03/30 03:19:40;;;;;;;;;53.00;41.00;;;;;3.94;89.04;99961.19;6280936;20;2498211;-56
2023/03/30 03:22:09;;;;;;;;;77.33;59.33;;;;;3.71;90.12;99964.53;6282705;20;2880531;-53
2023/03/30 03:24:39;;;;;;;;;80.00;59.67;;;;;3.42;91.59;99970.66;6314850;20;3628553;-51
2023/03/30 03:27:09;;;;;;;;;75.33;58.00;;;;;3.58;92.00;99966.69;6314082;20;3617987;-51
2023/03/30 03:29:38;;;;;;;;;67.50;52.50;;;;;3.32;93.23;99969.16;6313037;20;2874309;-52
2023/03/30 03:32:08;;;;;;;;;67.33;52.00;;;;;3.33;94.36;99978.88;6282653;20;2881532;-55
2023/03/30 03:34:38;;;;;;;;;55.50;44.00;;;;;3.45;93.60;99973.22;6312739;20;2851712;-49
2023/03/30 03:37:07;;;;;;;;;46.33;38.67;;;;;3.32;94.01;99962.09;6283390;20;2872201;-52
2023/03/30 03:39:38;;;;;;;;;49.33;39.33;;;;;3.20;93.67;99973.03;6313728;20;2873353;-54
2023/03/30 03:42:06;;;;;;;;;45.00;38.00;;;;;3.30;95.13;99970.09;6309015;20;2461842;-55
2023/03/30 03:44:37;;;;;;;;;51.33;40.00;;;;;3.43;94.78;99973.28;6282481;20;3631454;-54
2023/03/30 03:47:05;;;;;;;;;45.00;37.00;;;;;3.33;93.60;99970.94;6313092;20;2859663;-52
2023/03/30 03:49:34;;;;;;;;;42.50;39.00;;;;;3.33;92.90;99969.13;6283190;20;2850689;-50
2023/03/30 03:52:02;;;;;;;;;46.50;41.50;;;;;3.52;92.56;99977.44;6274882;20;2491925;-52
2023/03/30 03:54:31;;;;;;;;;54.00;42.00;;;;;3.65;91.38;99968.22;6279864;20;2874234;-52
2023/03/30 03:57:00;;;;;;;;;50.50;39.00;;;;;3.38;92.25;99963.72;6281147;20;2887813;-55
2023/03/30 03:59:29;;;;;;;;;50.00;41.00;;;;;3.14;92.16;99958.16;6283402;20;2855520;-51
2023/03/30 04:01:58;;;;;;;;;58.50;45.00;;;;;3.34;93.19;99964.69;6277332;20;2873182;-53
2023/03/30 04:04:26;;;;;;;;;64.50;51.00;;;;;3.33;93.20;99969.13;6269702;20;2500692;-52
2023/03/30 04:06:55;;;;;;;;;54.00;45.00;;;;;3.12;93.52;99975.03;6279002;20;2500279;-54
2023/03/30 04:09:24;;;;;;;;;58.00;44.00;;;;;3.24;93.15;99972.91;6280895;20;2868017;-53
2023/03/30 04:11:52;;;;;;;;;49.00;42.00;;;;;2.94;93.66;99961.31;6278250;20;2496163;-50
2023/03/30 04:14:21;;;;;;;;;57.50;43.00;;;;;3.01;93.95;99962.06;6278910;20;2868078;-52
2023/03/30 04:16:50;;;;;;;;;61.50;49.50;;;;;3.23;93.73;99972.94;6281160;20;2866975;-53
2023/03/30 04:19:19;;;;;;;;;66.50;53.00;;;;;3.34;93.41;99988.56;6277313;20;2873221;-51
2023/03/30 04:21:48;;;;;;;;;71.67;56.00;;;;;3.21;93.86;99977.41;6278747;20;2884905;-51
2023/03/30 04:24:18;;;;;;;;;71.00;51.33;;;;;3.19;93.69;99972.16;6312007;20;2884677;-51
2023/03/30 04:26:48;;;;;;;;;73.33;55.33;;;;;3.36;92.79;99968.19;6311317;20;2888962;-53
2023/03/30 04:29:21;;;;;;;;;70.33;53.33;;;;;3.51;93.31;99973.94;6309228;20;3625349;-52
2023/03/30 04:31:51;;;;;;;;;65.00;48.00;;;;;3.36;93.08;99973.50;6308895;20;2880715;-53
2023/03/30 04:34:20;;;;;;;;;65.50;49.00;;;;;3.60;92.93;99974.59;6310841;20;2870093;-50
2023/03/30 04:36:49;;;;;;;;;59.50;47.00;;;;;3.48;92.30;99968.72;6274108;20;2875447;-50
2023/03/30 04:39:19;;;;;;;;;67.00;52.00;;;;;3.55;93.76;99974.72;6276080;20;2500300;-51
2023/03/30 04:41:51;;;;;;;;;62.50;49.00;;;;;3.47;95.13;99972.25;6276983;20;2869133;-52
2023/03/30 04:44:20;;;;;;;;;60.00;47.50;;;;;3.57;94.64;99961.41;6280746;20;2856299;-54
2023/03/30 04:46:49;;;;;;;;;64.00;53.00;;;;;3.66;93.65;99964.69;6279278;20;2878438;-50
2023/03/30 04:49:19;;;;;;;;;75.33;54.00;;;;;3.94;92.42;99963.84;6281620;20;3649300;-50
2023/03/30 04:51:48;;;;;;;;;59.00;46.00;;;;;3.91;92.09;99951.53;6305976;20;2872170;-52
2023/03/30 04:54:17;;;;;;;;;58.50;46.50;;;;;4.21;90.86;99942.66;6277885;20;2867611;-52
2023/03/30 04:56:45;;;;;;;;;55.00;45.00;;;;;4.00;90.41;99931.78;6272329;20;2500263;-50
2023/03/30 04:59:15;;;;;;;;;80.67;61.00;;;;;3.78;92.05;99928.03;6277248;20;3652343;-53
2023/03/30 05:01:45;;;;;;;;;83.67;64.00;;;;;3.95;91.55;99931.94;6308983;20;3633125;-52
2023/03/30 05:04:15;;;;;;;;;73.00;55.00;;;;;3.94;90.96;99939.94;6308583;20;3644025;-49
2023/03/30 05:06:45;;;;;;;;;69.67;55.33;;;;;4.17;89.53;99932.13;6311857;20;2873306;-51
2023/03/30 05:09:14;;;;;;;;;55.50;41.50;;;;;4.27;88.70;99934.50;6310908;20;2853422;-48
2023/03/30 05:11:44;;;;;;;;;52.33;39.00;;;;;3.94;88.32;99937.28;6280441;20;3630475;-52
2023/03/30 05:14:14;;;;;;;;;39.33;35.67;;;;;4.13;88.39;99946.44;6311108;20;3617964;-51
2023/03/30 05:16:43;;;;;;;;;42.50;38.50;;;;;4.42;88.31;99951.75;6311794;20;2853587;-52
2023/03/30 05:19:13;;;;;;;;;44.33;34.67;;;;;4.64;87.10;99950.13;6279624;20;2868092;-51
2023/03/30 05:21:42;;;;;;;;;48.00;38.00;;;;;4.59;87.02;99944.97;6310677;20;2867046;-53
2023/03/30 05:24:13;;;;;;;;;45.67;37.67;;;;;4.65;87.42;99948.34;6311078;20;2866962;-54
2023/03/30 05:26:42;;;;;;;;;55.00;46.00;;;;;4.60;88.75;99943.16;6311314;20;2869584;-53
2023/03/30 05:29:12;;;;;;;;;78.33;60.00;;;;;4.88;86.88;99945.78;6279972;20;3627344;-53
2023/03/30 05:31:42;;;;;;;;;86.00;62.67;;;;;4.84;86.48;99949.44;6308267;20;3655499;-54
2023/03/30 05:34:11;;;;;;;;;93.67;75.00;;;;;5.23;85.30;99952.53;6311462;20;3679528;-50
2023/03/30 05:36:41;;;;;;;;;76.67;58.00;;;;;5.19;83.99;99950.91;6278222;20;2886743;-51
2023/03/30 05:39:12;;;;;;;;;66.00;43.33;;;;;5.31;84.64;99940.75;6311068;20;3641932;-55
2023/03/30 05:41:40;;;;;;;;;53.50;42.00;;;;;5.43;82.71;99946.50;6308449;20;2856549;-55
2023/03/30 05:44:10;;;;;;;;;52.00;42.00;;;;;5.58;82.94;99941.53;6277848;20;2847168;-51
2023/03/30 05:46:38;;;;;;;;;49.50;42.00;;;;;5.35;84.01;99945.91;6278834;20;2844024;-54
2023/03/30 05:49:07;;;;;;;;;71.00;54.50;;;;;5.45;83.34;99939.31;6279953;20;2872182;-51
2023/03/30 05:51:36;;;;;;;;;61.00;48.00;;;;;5.22;84.75;99940.16;6274112;20;2858666;-51
2023/03/30 05:54:05;;;;;;;;;52.50;41.00;;;;;5.23;84.21;99936.56;6275312;20;2879435;-52
2023/03/30 05:56:34;;;;;;;;;58.00;45.00;;;;;5.07;86.41;99893.66;6269563;20;2853653;-49
2023/03/30 05:59:04;;;;;;;;;49.00;38.50;;;;;5.44;86.01;99932.25;6279391;20;2861772;-52
2023/03/30 06:01:32;;;;;;;;;50.50;40.50;;;;;5.37;85.54;99927.19;6276139;20;2512914;-55
2023/03/30 06:04:02;;;;;;;;;46.00;39.67;;;;;5.91;83.47;99932.25;6279115;20;2878524;-54
2023/03/30 06:06:32;;;;;;;;;46.67;38.00;;;;;5.83;82.92;99941.47;6310621;20;2858705;-54
2023/03/30 06:09:03;;;;;;;;;51.00;39.00;;;;;6.07;81.75;99935.22;6311950;20;3632568;-56
2023/03/30 06:11:32;;;;;;;;;42.00;36.00;;;;;6.21;81.40;99933.81;6311223;20;3617070;-52
2023/03/30 06:14:01;;;;;;;;;39.00;33.67;;;;;6.10;81.62;99936.91;6280128;20;2870263;-54
2023/03/30 06:16:31;;;;;;;;;35.33;32.00;;;;;6.48;80.85;99929.19;6304359;20;2867159;-52
2023/03/30 06:19:00;;;;;;;;;41.33;33.33;;;;;7.23;77.33;99937.53;6313807;20;3596076;-55
2023/03/30 06:21:29;;;;;;;;;34.33;31.00;;;;;7.77;74.92;99934.28;6314347;20;2852396;-53
2023/03/30 06:23:58;;;;;;;;;36.50;33.00;;;;;7.45;75.20;99934.78;6314563;20;2848272;-55
2023/03/30 06:26:28;;;;;;;;;43.33;37.67;;;;;9.19;68.50;99934.50;6285300;20;2866963;-52
2023/03/30 06:28:57;;;;;;;;;42.67;38.33;;;;;9.36;64.39;99938.94;6318254;20;3611739;-55
2023/03/30 06:31:27;;;;;;;;;47.67;36.00;;;;;12.25;57.14;99944.53;6283370;20;3622141;-56
2023/03/30 06:33:56;;;;;;;;;38.33;33.67;;;;;13.64;50.41;99941.50;6317685;20;3600319;-56
2023/03/30 06:36:26;;;;;;;;;35.33;32.33;;;;;10.72;59.47;99935.94;6281649;20;2852312;-56
2023/03/30 06:39:14;;;;;;;;;42.67;33.00;;;;;15.57;45.96;99940.72;6315428;20;2872287;-60
2023/03/30 06:41:43;;;;;;;;;31.33;30.67;;;;;15.68;43.92;99942.59;6313990;20;3589916;-60
2023/03/30 06:44:15;;;;;;;;;58.67;49.00;;;;;16.42;42.48;99938.41;6284304;20;2869133;-60
2023/03/30 06:46:45;;;;;;;;;40.00;30.67;;;;;15.16;43.24;99933.97;6317149;20;3620081;-61
2023/03/30 06:49:13;;;;;;;;;28.33;26.67;;;;;15.94;43.08;99936.00;6288628;20;3602388;-60
2023/03/30 06:51:43;;;;;;;;;30.33;28.33;;;;;11.32;52.94;99924.31;6283516;20;3606624;-60
2023/03/30 06:54:12;;;;;;;;;36.67;32.33;;;;;11.30;58.80;99918.19;6312707;20;3606561;-61
2023/03/30 06:56:41;;;;;;;;;30.67;26.67;;;;;14.43;48.69;99925.00;6281875;20;2850402;-61
2023/03/30 06:59:10;;;;;;;;;27.67;25.67;;;;;16.50;42.74;99934.22;6319723;20;3602348;-61
2023/03/30 07:01:40;;;;;;;;;30.00;27.33;;;;;14.50;45.67;99928.94;6283773;20;3608606;-61
2023/03/30 07:04:09;;;;;;;;;24.00;24.00;;;;;15.65;44.34;99923.88;6317597;20;3597159;-61
2023/03/30 07:06:38;;;;;;;;;39.67;31.33;;;;;15.91;43.96;99927.28;6286490;20;3614964;-61
2023/03/30 07:09:07;;;;;;;;;26.00;24.33;;;;;14.69;46.27;99927.59;6285786;20;3595169;-61
2023/03/30 07:11:37;;;;;;;;;28.67;25.67;;;;;11.01;55.56;99918.09;6282770;20;3591901;-61
2023/03/30 07:14:06;;;;;;;;;38.33;32.00;;;;;10.76;59.92;99916.84;6319324;20;3611736;-61
2023/03/30 07:16:35;;;;;;;;;28.00;26.00;;;;;9.98;61.58;99921.31;6284324;20;2862817;-61
2023/03/30 07:19:04;;;;;;;;;25.50;23.50;;;;;9.85;63.93;99918.44;6284161;20;2848204;-60
2023/03/30 07:21:33;;;;;;;;;26.00;25.00;;;;;9.78;65.50;99911.66;6282844;20;2848283;-54
2023/03/30 07:24:02;;;;;;;;;28.67;28.67;;;;;10.05;64.03;99908.41;6287679;20;3598304;-54
2023/03/30 07:26:31;;;;;;;;;33.33;28.33;;;;;9.92;65.88;99916.25;6284604;20;2863932;-53
2023/03/30 07:29:00;;;;;;;;;32.33;27.67;;;;;10.01;65.94;99917.59;6317743;20;3601314;-55
2023/03/30 07:31:30;;;;;;;;;30.33;25.33;;;;;10.06;65.07;99923.56;6285076;20;2841025;-54
2023/03/30 07:33:59;;;;;;;;;34.00;29.00;;;;;9.73;67.19;99912.88;6319366;20;3611706;-55
2023/03/30 07:36:28;;;;;;;;;35.67;30.67;;;;;9.47;67.79;99906.22;6284778;20;3615892;-55
2023/03/30 07:38:58;;;;;;;;;28.33;28.33;;;;;9.36;67.40;99896.06;6318390;20;3606591;-53
2023/03/30 07:41:26;;;;;;;;;26.00;25.50;;;;;9.86;67.03;99896.00;6283208;20;2850265;-51
2023/03/30 07:43:55;;;;;;;;;33.67;25.00;;;;;10.22;66.20;99902.09;6286512;20;3602443;-54
2023/03/30 07:46:25;;;;;;;;;29.33;29.33;;;;;10.57;64.53;99904.59;6282776;20;2864981;-54
2023/03/30 07:48:53;;;;;;;;;22.00;18.50;;;;;10.70;62.31;99906.47;6314571;20;2500314;-54
2023/03/30 07:51:23;;;;;;;;;29.00;26.00;;;;;10.91;61.35;99911.53;6282369;20;2847357;-54
2023/03/30 07:53:55;;;;;;;;;15.67;14.67;;;;;11.68;58.12;99917.63;6279670;20;3546110;-54
2023/03/30 07:56:24;;;;;;;;;21.50;19.00;;;;;11.57;55.50;99911.09;6281404;20;2826368;-53
2023/03/30 07:58:51;;;;;;;;;13.00;11.00;;;;;12.39;53.26;99920.25;6287577;20;2781578;-54
2023/03/30 08:01:20;;;;;;;;;27.50;20.00;;;;;12.62;53.02;99916.06;6283691;20;2855455;-55
2023/03/30 08:03:49;;;;;;;;;21.50;19.00;;;;;11.62;52.96;99906.28;6283532;20;2833624;-52
2023/03/30 08:06:18;;;;;;;;;19.00;17.50;;;;;11.99;53.10;99898.63;6284318;20;2829473;-53
2023/03/30 08:08:46;;;;;;;;;22.00;20.00;;;;;12.18;53.43;99900.13;6284631;20;2491969;-55
2023/03/30 08:11:15;;;;;;;;;21.50;19.00;;;;;11.16;53.65;99903.75;6281258;20;2838824;-55
2023/03/30 08:13:44;;;;;;;;;21.00;21.00;;;;;11.50;54.66;99907.03;6286946;20;2834730;-56
2023/03/30 08:16:13;;;;;;;;;28.50;21.00;;;;;11.44;52.15;99907.44;6283562;20;2858734;-56
2023/03/30 08:18:42;;;;;;;;;18.00;16.50;;;;;11.77;52.95;99901.78;6285968;20;2827466;-54
2023/03/30 08:21:12;;;;;;;;;23.33;18.00;;;;;11.76;52.43;99896.50;6284230;20;2852363;-55
2023/03/30 08:23:41;;;;;;;;;23.00;19.00;;;;;12.15;51.54;99900.31;6315026;20;2831540;-53
2023/03/30 08:26:10;;;;;;;;;20.00;19.00;;;;;11.88;51.80;99890.38;6285701;20;2836779;-56
2023/03/30 08:28:39;;;;;;;;;23.00;19.00;;;;;11.82;52.04;99896.09;6283777;20;2835764;-54
2023/03/30 08:31:09;;;;;;;;;22.50;18.00;;;;;12.03;52.64;99884.00;6283415;20;2839871;-53
2023/03/30 08:33:38;;;;;;;;;21.00;17.50;;;;;12.13;51.65;99878.88;6285739;20;2826373;-54
2023/03/30 08:36:06;;;;;;;;;22.00;18.00;;;;;12.08;52.41;99873.81;6284620;20;2832695;-55
2023/03/30 08:38:35;;;;;;;;;25.00;19.00;;;;;12.02;53.48;99881.41;6284120;20;2843269;-53
2023/03/30 08:41:52;;;;;;;;;15.00;15.00;;;;;12.73;51.07;99889.25;6279821;20;2811799;-53
2023/03/30 08:44:27;;;;;;;;;20.00;19.00;;;;;12.27;50.62;99896.84;6274363;20;2846197;-55
2023/03/30 08:46:56;;;;;;;;;20.00;20.00;;;;;12.36;51.06;99896.22;6283547;20;2839893;-55
2023/03/30 08:49:27;;;;;;;;;19.00;19.00;;;;;12.66;49.99;99889.75;6283162;20;2839931;-54
2023/03/30 08:52:05;;;;;;;;;21.50;21.50;;;;;12.18;51.24;99892.03;6277367;20;2836735;-52
2023/03/30 08:54:34;;;;;;;;;20.00;20.00;;;;;12.76;54.79;99879.25;6281252;20;2832734;-54
2023/03/30 08:57:25;;;;;;;;;24.00;22.00;;;;;12.03;51.49;99881.31;6283690;20;2840328;-51
2023/03/30 09:00:19;;;;;;;;;23.00;21.50;;;;;12.26;51.86;99879.81;6282253;20;2841990;-54
2023/03/30 09:03:10;;;;;;;;;27.50;24.50;;;;;12.61;51.09;99894.59;6282961;20;2852356;-54
2023/03/30 09:05:51;;;;;;;;;23.50;21.50;;;;;12.54;50.97;99888.78;6282830;20;2835687;-55
2023/03/30 09:08:27;;;;;;;;;25.00;22.00;;;;;12.66;52.26;99881.69;6283055;20;2844170;-55
2023/03/30 09:11:03;;;;;;;;;25.67;25.67;;;;;12.39;53.28;99890.63;6279766;20;2856583;-54
2023/03/30 09:13:36;;;;;;;;;19.50;16.17;;;;;12.21;53.12;99889.16;6336827;20;2827452;-53
2023/03/30 09:16:48;;;;;;;;;25.50;22.50;;;;;11.78;54.16;99894.56;6312363;20;2845086;-55
2023/03/30 09:19:32;;;;;;;;;29.67;26.67;;;;;11.67;54.55;99884.50;6281015;20;3609612;-54
2023/03/30 09:22:05;;;;;;;;;25.00;23.50;;;;;11.90;52.44;99876.81;6307458;20;2847161;-55
2023/03/30 09:24:34;;;;;;;;;22.00;19.00;;;;;11.73;54.73;99859.03;6280686;20;2829537;-53
2023/03/30 09:27:54;;;;;;;;;26.00;22.50;;;;;11.72;54.39;99850.09;6282484;20;2843078;-55
2023/03/30 09:30:44;;;;;;;;;26.50;24.50;;;;;11.82;55.24;99856.63;6279806;20;2848243;-56
2023/03/30 09:33:57;;;;;;;;;24.50;24.50;;;;;11.73;54.05;99864.41;6282786;20;2848261;-54
2023/03/30 09:36:56;;;;;;;;;30.00;28.33;;;;;11.59;54.86;99874.22;6283168;20;3589905;-52
2023/03/30 09:39:28;;;;;;;;;24.33;24.00;;;;;11.75;54.95;99854.41;6280091;20;3587914;-53
2023/03/30 09:42:35;;;;;;;;;27.00;24.33;;;;;12.01;54.96;99850.09;6282983;20;3592993;-55
2023/03/30 09:45:28;;;;;;;;;23.00;22.50;;;;;12.50;53.17;99855.78;6280379;20;2836809;-55
2023/03/30 09:48:08;;;;;;;;;25.33;22.67;;;;;13.36;52.81;99844.53;6281944;20;3580570;-56
2023/03/30 09:50:46;;;;;;;;;25.00;22.33;;;;;13.70;51.19;99836.72;6283135;20;3588882;-53
2023/03/30 09:53:25;;;;;;;;;22.50;22.00;;;;;13.33;49.57;99833.97;6278779;20;2848281;-55
2023/03/30 09:56:12;;;;;;;;;22.67;22.00;;;;;13.70;49.49;99825.06;6280522;20;2845281;-54
2023/03/30 09:58:41;;;;;;;;;27.00;22.33;;;;;14.30;48.16;99824.25;6318640;20;3587801;-56
2023/03/30 10:01:19;;;;;;;;;27.33;24.67;;;;;14.10;49.97;99824.84;6284210;20;3591975;-54
2023/03/30 10:04:11;;;;;;;;;22.33;20.67;;;;;13.82;50.07;99822.34;6316006;20;2837769;-56
2023/03/30 10:06:50;;;;;;;;;25.33;22.33;;;;;13.81;50.03;99822.44;6317495;20;2845104;-54
2023/03/30 10:09:23;;;;;;;;;23.33;23.33;;;;;13.91;50.16;99818.09;6319567;20;3598191;-55
2023/03/30 10:11:54;;;;;;;;;24.67;23.00;;;;;14.54;48.48;99815.28;6288540;20;3570091;-55
2023/03/30 10:14:34;;;;;;;;;24.00;24.00;;;;;14.07;49.13;99815.13;6284059;20;3476770;-56
2023/03/30 10:17:04;;;;;;;;;26.50;23.00;;;;;14.72;48.81;99813.88;6319001;20;2848179;-56
2023/03/30 10:19:35;;;;;;;;;22.00;22.00;;;;;15.09;47.60;99806.47;6287507;20;2844163;-55
2023/03/30 10:22:17;;;;;;;;;26.00;23.33;;;;;14.24;47.80;99798.56;6284545;20;2856606;-57
2023/03/30 10:24:56;;;;;;;;;19.00;15.00;;;;;14.80;47.38;99806.06;6317944;20;3561835;-55
2023/03/30 10:27:35;;;;;;;;;25.00;22.50;;;;;15.25;46.84;99805.28;6287710;20;2844100;-55
2023/03/30 10:30:11;;;;;;;;;24.67;22.67;;;;;15.40;46.07;99812.16;6283790;20;3595112;-54
2023/03/30 10:32:48;;;;;;;;;24.33;22.00;;;;;15.41;47.29;99805.78;6317852;20;3575257;-55
2023/03/30 10:35:34;;;;;;;;;20.00;18.00;;;;;14.81;45.89;99804.19;6285814;20;2826359;-54
2023/03/30 10:38:07;;;;;;;;;27.67;24.33;;;;;14.83;46.39;99792.28;6284490;20;2845209;-56
2023/03/30 10:40:41;;;;;;;;;23.67;21.33;;;;;15.22;47.13;99791.97;6319237;20;3582672;-56
2023/03/30 10:43:20;;;;;;;;;21.00;18.00;;;;;15.47;46.32;99780.91;6273370;20;2496303;-55
2023/03/30 10:45:55;;;;;;;;;23.00;18.50;;;;;14.55;46.42;99784.59;6284491;20;2835713;-54
2023/03/30 10:49:12;;;;;;;;;21.00;20.50;;;;;15.42;45.21;99783.13;6283595;20;2833636;-54
2023/03/30 10:52:38;;;;;;;;;21.00;19.67;;;;;15.45;46.66;99785.59;6284980;20;3572332;-56
2023/03/30 10:55:40;;;;;;;;;24.50;21.50;;;;;15.42;46.41;99774.16;6315361;20;2838947;-54
2023/03/30 10:58:45;;;;;;;;;20.67;20.33;;;;;15.41;46.19;99761.63;6287265;20;3578536;-53
2023/03/30 11:01:49;;;;;;;;;16.00;13.50;;;;;15.29;46.65;99760.75;6281173;20;2496234;-54
2023/03/30 11:05:16;;;;;;;;;26.33;21.67;;;;;15.21;45.43;99750.53;6282616;20;2842982;-55
2023/03/30 11:08:31;;;;;;;;;21.33;20.67;;;;;15.60;46.17;99756.44;6312249;20;3562804;-56
2023/03/30 11:11:00;;;;;;;;;23.00;20.00;;;;;14.94;46.59;99745.50;6279355;20;2836743;-56
2023/03/30 11:14:00;;;;;;;;;25.00;22.00;;;;;15.10;46.61;99731.63;6290500;20;3575292;-55
2023/03/30 11:16:39;;;;;;;;;24.00;22.00;;;;;15.32;47.36;99736.16;6283068;20;2837881;-55
2023/03/30 11:19:35;;;;;;;;;20.50;19.50;;;;;15.45;46.84;99734.19;6280551;20;2842989;-55
2023/03/30 11:23:12;;;;;;;;;24.00;21.00;;;;;15.67;46.97;99724.34;6280334;20;2848241;-54
2023/03/30 11:26:12;;;;;;;;;20.33;20.33;;;;;15.23;46.70;99726.09;6280097;20;2845139;-54
2023/03/30 11:29:14;;;;;;;;;22.00;19.00;;;;;15.78;47.03;99724.31;6316188;20;2833613;-54
2023/03/30 11:32:23;;;;;;;;;17.00;17.00;;;;;16.26;45.53;99723.06;6278616;20;2483609;-55
2023/03/30 11:35:23;;;;;;;;;20.33;20.33;;;;;16.43;45.57;99714.38;6280333;20;2846117;-59
2023/03/30 11:38:18;;;;;;;;;20.33;19.00;;;;;16.14;45.52;99709.56;6316785;20;2836734;-58
2023/03/30 11:41:09;;;;;;;;;16.33;15.67;;;;;16.02;46.36;99722.28;6316593;20;3550297;-58
2023/03/30 11:43:37;;;;;;;;;17.50;17.50;;;;;15.67;45.49;99724.34;6312944;20;2826402;-58
2023/03/30 11:46:34;;;;;;;;;23.00;23.00;;;;;15.73;46.69;99718.44;6280502;20;2845110;-57
2023/03/30 11:49:46;;;;;;;;;22.00;20.50;;;;;15.79;47.04;99715.22;6316797;20;2834662;-58
2023/03/30 11:52:38;;;;;;;;;22.00;20.00;;;;;15.68;47.84;99699.81;6281248;20;2837822;-58